sensor_id;sensor_type;location;lat;lon;timestamp;P1;durP1;ratioP1;P2;durP2;ratioP2
1024;SDS011;501;48.214;11.350;2023-08-06T00:00:17;4.53;;;4.13;;
1024;SDS011;501;48.214;11.350;2023-08-06T00:02:42;5.73;;;5.10;;
1024;SDS011;501;48.214;11.350;2023-08-06T00:05:08;6.10;;;5.43;;
1024;SDS011;501;48.214;11.350;2023-08-06T00:07:34;6.40;;;5.70;;
1024;SDS011;501;48.214;11.350;2023-08-06T00:10:00;4.73;;;4.33;;
1024;SDS011;501;48.214;11.350;2023-08-06T00:12:25;9.47;;;5.10;;
1024;SDS011;501;48.214;11.350;2023-08-06T00:14:51;5.83;;;5.10;;
1024;SDS011;501;48.214;11.350;2023-08-06T00:17:18;5.70;;;5.20;;
1024;SDS011;501;48.214;11.350;2023-08-06T00:19:44;4.40;;;4.00;;
1024;SDS011;501;48.214;11.350;2023-08-06T00:22:09;6.80;;;4.97;;
1024;SDS011;501;48.214;11.350;2023-08-06T00:24:35;5.23;;;4.73;;
1024;SDS011;501;48.214;11.350;2023-08-06T00:27:01;4.37;;;4.07;;
1024;SDS011;501;48.214;11.350;2023-08-06T00:29:27;4.80;;;4.40;;
1024;SDS011;501;48.214;11.350;2023-08-06T00:31:52;5.40;;;4.90;;
1024;SDS011;501;48.214;11.350;2023-08-06T00:34:18;5.03;;;4.47;;
1024;SDS011;501;48.214;11.350;2023-08-06T00:36:44;4.87;;;4.47;;
1024;SDS011;501;48.214;11.350;2023-08-06T00:39:09;7.50;;;4.73;;
1024;SDS011;501;48.214;11.350;2023-08-06T00:41:35;6.60;;;5.43;;
1024;SDS011;501;48.214;11.350;2023-08-06T00:44:00;5.30;;;4.80;;
1024;SDS011;501;48.214;11.350;2023-08-06T00:46:26;4.67;;;4.03;;
1024;SDS011;501;48.214;11.350;2023-08-06T00:48:52;5.67;;;4.00;;
1024;SDS011;501;48.214;11.350;2023-08-06T00:51:18;4.20;;;3.83;;
1024;SDS011;501;48.214;11.350;2023-08-06T00:53:45;7.00;;;4.10;;
1024;SDS011;501;48.214;11.350;2023-08-06T00:56:11;4.43;;;4.03;;
1024;SDS011;501;48.214;11.350;2023-08-06T00:58:37;4.40;;;4.00;;
1024;SDS011;501;48.214;11.350;2023-08-06T01:01:04;5.03;;;4.50;;
1024;SDS011;501;48.214;11.350;2023-08-06T01:03:30;6.00;;;4.40;;
1024;SDS011;501;48.214;11.350;2023-08-06T01:05:55;4.60;;;4.20;;
1024;SDS011;501;48.214;11.350;2023-08-06T01:11:26;4.50;;;4.10;;
1024;SDS011;501;48.214;11.350;2023-08-06T01:13:53;5.80;;;5.30;;
1024;SDS011;501;48.214;11.350;2023-08-06T01:16:24;5.17;;;4.63;;
1024;SDS011;501;48.214;11.350;2023-08-06T01:18:50;5.60;;;5.10;;
1024;SDS011;501;48.214;11.350;2023-08-06T01:21:16;11.40;;;4.80;;
1024;SDS011;501;48.214;11.350;2023-08-06T01:23:42;5.37;;;4.87;;
1024;SDS011;501;48.214;11.350;2023-08-06T01:28:59;5.47;;;4.70;;
1024;SDS011;501;48.214;11.350;2023-08-06T01:31:51;8.20;;;5.70;;
1024;SDS011;501;48.214;11.350;2023-08-06T01:34:22;5.93;;;5.00;;
1024;SDS011;501;48.214;11.350;2023-08-06T01:36:50;6.10;;;5.13;;
1024;SDS011;501;48.214;11.350;2023-08-06T01:39:15;7.00;;;5.77;;
1024;SDS011;501;48.214;11.350;2023-08-06T01:41:41;5.40;;;4.90;;
1024;SDS011;501;48.214;11.350;2023-08-06T01:44:07;8.97;;;5.20;;
1024;SDS011;501;48.214;11.350;2023-08-06T01:46:32;5.70;;;5.07;;
1024;SDS011;501;48.214;11.350;2023-08-06T01:48:58;9.90;;;5.43;;
1024;SDS011;501;48.214;11.350;2023-08-06T01:51:24;5.10;;;4.57;;
1024;SDS011;501;48.214;11.350;2023-08-06T01:53:49;6.20;;;5.70;;
1024;SDS011;501;48.214;11.350;2023-08-06T01:56:15;4.90;;;4.40;;
1024;SDS011;501;48.214;11.350;2023-08-06T01:58:40;5.07;;;4.60;;
1024;SDS011;501;48.214;11.350;2023-08-06T02:01:06;5.73;;;4.67;;
1024;SDS011;501;48.214;11.350;2023-08-06T02:03:31;4.50;;;4.10;;
1024;SDS011;501;48.214;11.350;2023-08-06T02:05:57;5.10;;;4.10;;
1024;SDS011;501;48.214;11.350;2023-08-06T02:08:23;4.77;;;3.87;;
1024;SDS011;501;48.214;11.350;2023-08-06T02:10:48;3.83;;;3.53;;
1024;SDS011;501;48.214;11.350;2023-08-06T02:13:14;4.87;;;3.93;;
1024;SDS011;501;48.214;11.350;2023-08-06T02:15:43;5.53;;;4.03;;
1024;SDS011;501;48.214;11.350;2023-08-06T02:18:09;4.17;;;3.80;;
1024;SDS011;501;48.214;11.350;2023-08-06T02:20:35;3.70;;;3.40;;
1024;SDS011;501;48.214;11.350;2023-08-06T02:23:00;3.70;;;3.40;;
1024;SDS011;501;48.214;11.350;2023-08-06T02:25:26;4.13;;;3.77;;
1024;SDS011;501;48.214;11.350;2023-08-06T02:27:51;4.10;;;3.70;;
1024;SDS011;501;48.214;11.350;2023-08-06T02:30:17;3.27;;;2.97;;
1024;SDS011;501;48.214;11.350;2023-08-06T02:32:43;6.37;;;3.43;;
1024;SDS011;501;48.214;11.350;2023-08-06T02:35:09;4.40;;;3.67;;
1024;SDS011;501;48.214;11.350;2023-08-06T02:37:34;3.70;;;3.40;;
1024;SDS011;501;48.214;11.350;2023-08-06T02:40:00;3.57;;;3.13;;
1024;SDS011;501;48.214;11.350;2023-08-06T02:42:26;3.70;;;3.40;;
1024;SDS011;501;48.214;11.350;2023-08-06T02:44:52;3.33;;;3.03;;
1024;SDS011;501;48.214;11.350;2023-08-06T02:47:21;3.80;;;3.40;;
1024;SDS011;501;48.214;11.350;2023-08-06T02:49:46;3.70;;;3.40;;
1024;SDS011;501;48.214;11.350;2023-08-06T02:52:12;4.03;;;3.60;;
1024;SDS011;501;48.214;11.350;2023-08-06T02:54:38;4.13;;;3.00;;
1024;SDS011;501;48.214;11.350;2023-08-06T02:57:04;3.80;;;3.27;;
1024;SDS011;501;48.214;11.350;2023-08-06T02:59:30;3.70;;;3.40;;
1024;SDS011;501;48.214;11.350;2023-08-06T03:01:56;4.70;;;3.40;;
1024;SDS011;501;48.214;11.350;2023-08-06T03:04:22;3.23;;;2.93;;
1024;SDS011;501;48.214;11.350;2023-08-06T03:06:49;3.73;;;3.30;;
1024;SDS011;501;48.214;11.350;2023-08-06T03:09:15;3.93;;;3.63;;
1024;SDS011;501;48.214;11.350;2023-08-06T03:11:41;3.23;;;3.00;;
1024;SDS011;501;48.214;11.350;2023-08-06T03:14:06;4.40;;;3.30;;
1024;SDS011;501;48.214;11.350;2023-08-06T03:16:32;3.60;;;3.30;;
1024;SDS011;501;48.214;11.350;2023-08-06T03:18:57;2.83;;;2.63;;
1024;SDS011;501;48.214;11.350;2023-08-06T03:21:23;3.30;;;3.10;;
1024;SDS011;501;48.214;11.350;2023-08-06T03:23:49;3.20;;;2.90;;
1024;SDS011;501;48.214;11.350;2023-08-06T03:26:14;5.20;;;2.87;;
1024;SDS011;501;48.214;11.350;2023-08-06T03:28:40;3.50;;;3.20;;
1024;SDS011;501;48.214;11.350;2023-08-06T03:31:05;3.80;;;3.47;;
1024;SDS011;501;48.214;11.350;2023-08-06T03:33:31;4.80;;;3.60;;
1024;SDS011;501;48.214;11.350;2023-08-06T03:35:57;3.83;;;3.23;;
1024;SDS011;501;48.214;11.350;2023-08-06T03:38:22;3.77;;;2.97;;
1024;SDS011;501;48.214;11.350;2023-08-06T03:40:48;3.70;;;3.40;;
1024;SDS011;501;48.214;11.350;2023-08-06T03:43:14;4.60;;;3.50;;
1024;SDS011;501;48.214;11.350;2023-08-06T03:45:40;3.30;;;3.00;;
1024;SDS011;501;48.214;11.350;2023-08-06T03:48:06;3.00;;;2.70;;
1024;SDS011;501;48.214;11.350;2023-08-06T03:50:32;6.33;;;4.37;;
1024;SDS011;501;48.214;11.350;2023-08-06T03:52:57;3.23;;;2.93;;
1024;SDS011;501;48.214;11.350;2023-08-06T03:55:23;2.70;;;2.50;;
1024;SDS011;501;48.214;11.350;2023-08-06T03:57:49;3.50;;;3.10;;
1024;SDS011;501;48.214;11.350;2023-08-06T04:00:14;4.10;;;2.90;;
1024;SDS011;501;48.214;11.350;2023-08-06T04:02:40;3.17;;;2.90;;
1024;SDS011;501;48.214;11.350;2023-08-06T04:05:06;2.97;;;2.57;;
1024;SDS011;501;48.214;11.350;2023-08-06T04:07:31;3.03;;;2.73;;
1024;SDS011;501;48.214;11.350;2023-08-06T04:09:58;4.00;;;3.00;;
1024;SDS011;501;48.214;11.350;2023-08-06T04:12:24;3.00;;;2.80;;
1024;SDS011;501;48.214;11.350;2023-08-06T04:14:51;3.33;;;2.77;;
1024;SDS011;501;48.214;11.350;2023-08-06T04:17:17;3.60;;;2.97;;
1024;SDS011;501;48.214;11.350;2023-08-06T04:19:48;2.57;;;2.37;;
1024;SDS011;501;48.214;11.350;2023-08-06T04:22:15;3.00;;;2.80;;
1024;SDS011;501;48.214;11.350;2023-08-06T04:24:41;5.00;;;3.60;;
1024;SDS011;501;48.214;11.350;2023-08-06T04:27:08;2.83;;;2.47;;
1024;SDS011;501;48.214;11.350;2023-08-06T04:29:34;5.63;;;3.10;;
1024;SDS011;501;48.214;11.350;2023-08-06T04:32:00;3.07;;;2.77;;
1024;SDS011;501;48.214;11.350;2023-08-06T04:34:25;3.10;;;2.80;;
1024;SDS011;501;48.214;11.350;2023-08-06T04:36:51;5.70;;;2.77;;
1024;SDS011;501;48.214;11.350;2023-08-06T04:39:17;2.67;;;2.47;;
1024;SDS011;501;48.214;11.350;2023-08-06T04:41:42;2.70;;;2.50;;
1024;SDS011;501;48.214;11.350;2023-08-06T04:44:08;3.20;;;2.90;;
1024;SDS011;501;48.214;11.350;2023-08-06T04:46:34;3.93;;;3.40;;
1024;SDS011;501;48.214;11.350;2023-08-06T04:48:59;3.27;;;2.97;;
1024;SDS011;501;48.214;11.350;2023-08-06T04:51:25;2.90;;;2.70;;
1024;SDS011;501;48.214;11.350;2023-08-06T04:53:50;3.07;;;2.73;;
1024;SDS011;501;48.214;11.350;2023-08-06T04:56:16;3.37;;;2.80;;
1024;SDS011;501;48.214;11.350;2023-08-06T04:58:41;4.60;;;4.20;;
1024;SDS011;501;48.214;11.350;2023-08-06T05:01:07;3.00;;;2.77;;
1024;SDS011;501;48.214;11.350;2023-08-06T05:03:32;2.83;;;2.63;;
1024;SDS011;501;48.214;11.350;2023-08-06T05:05:58;3.97;;;2.33;;
1024;SDS011;501;48.214;11.350;2023-08-06T05:08:24;3.70;;;2.33;;
1024;SDS011;501;48.214;11.350;2023-08-06T05:10:49;3.70;;;2.47;;
1024;SDS011;501;48.214;11.350;2023-08-06T05:13:15;3.50;;;3.20;;
1024;SDS011;501;48.214;11.350;2023-08-06T05:15:41;3.00;;;2.30;;
1024;SDS011;501;48.214;11.350;2023-08-06T05:18:08;3.07;;;2.77;;
1024;SDS011;501;48.214;11.350;2023-08-06T05:20:40;2.40;;;2.20;;
1024;SDS011;501;48.214;11.350;2023-08-06T05:23:07;2.80;;;2.33;;
1024;SDS011;501;48.214;11.350;2023-08-06T05:25:36;3.40;;;2.73;;
1024;SDS011;501;48.214;11.350;2023-08-06T05:28:02;4.20;;;2.20;;
1024;SDS011;501;48.214;11.350;2023-08-06T05:30:28;2.73;;;2.53;;
1024;SDS011;501;48.214;11.350;2023-08-06T05:32:53;4.57;;;3.30;;
1024;SDS011;501;48.214;11.350;2023-08-06T05:35:20;2.30;;;2.10;;
1024;SDS011;501;48.214;11.350;2023-08-06T05:37:46;2.87;;;2.63;;
1024;SDS011;501;48.214;11.350;2023-08-06T05:40:11;2.47;;;2.20;;
1024;SDS011;501;48.214;11.350;2023-08-06T05:42:37;3.10;;;2.63;;
1024;SDS011;501;48.214;11.350;2023-08-06T05:45:03;2.90;;;2.30;;
1024;SDS011;501;48.214;11.350;2023-08-06T05:47:29;3.13;;;2.83;;
1024;SDS011;501;48.214;11.350;2023-08-06T05:49:54;3.27;;;2.47;;
1024;SDS011;501;48.214;11.350;2023-08-06T05:52:20;4.23;;;2.60;;
1024;SDS011;501;48.214;11.350;2023-08-06T05:54:45;3.03;;;2.10;;
1024;SDS011;501;48.214;11.350;2023-08-06T05:57:11;2.77;;;2.57;;
1024;SDS011;501;48.214;11.350;2023-08-06T05:59:37;2.50;;;2.30;;
1024;SDS011;501;48.214;11.350;2023-08-06T06:02:02;2.07;;;1.93;;
1024;SDS011;501;48.214;11.350;2023-08-06T06:04:28;2.17;;;2.00;;
1024;SDS011;501;48.214;11.350;2023-08-06T06:06:54;2.53;;;2.33;;
1024;SDS011;501;48.214;11.350;2023-08-06T06:09:20;3.37;;;2.90;;
1024;SDS011;501;48.214;11.350;2023-08-06T06:11:45;3.07;;;2.23;;
1024;SDS011;501;48.214;11.350;2023-08-06T06:14:11;2.90;;;2.00;;
1024;SDS011;501;48.214;11.350;2023-08-06T06:16:36;2.53;;;2.33;;
1024;SDS011;501;48.214;11.350;2023-08-06T06:19:02;3.33;;;2.10;;
1024;SDS011;501;48.214;11.350;2023-08-06T06:21:28;2.33;;;2.13;;
1024;SDS011;501;48.214;11.350;2023-08-06T06:23:53;2.87;;;2.17;;
1024;SDS011;501;48.214;11.350;2023-08-06T06:26:19;2.20;;;2.00;;
1024;SDS011;501;48.214;11.350;2023-08-06T06:28:44;1.60;;;1.50;;
1024;SDS011;501;48.214;11.350;2023-08-06T06:31:10;2.27;;;2.07;;
1024;SDS011;501;48.214;11.350;2023-08-06T06:33:36;2.83;;;1.67;;
1024;SDS011;501;48.214;11.350;2023-08-06T06:36:01;2.37;;;1.70;;
1024;SDS011;501;48.214;11.350;2023-08-06T06:38:32;1.73;;;1.40;;
1024;SDS011;501;48.214;11.350;2023-08-06T06:40:58;1.40;;;1.30;;
1024;SDS011;501;48.214;11.350;2023-08-06T06:43:25;4.53;;;2.23;;
1024;SDS011;501;48.214;11.350;2023-08-06T06:46:00;1.70;;;1.60;;
1024;SDS011;501;48.214;11.350;2023-08-06T06:48:27;2.40;;;1.10;;
1024;SDS011;501;48.214;11.350;2023-08-06T06:50:54;1.07;;;1.00;;
1024;SDS011;501;48.214;11.350;2023-08-06T06:53:20;1.40;;;1.13;;
1024;SDS011;501;48.214;11.350;2023-08-06T06:55:48;2.50;;;1.07;;
1024;SDS011;501;48.214;11.350;2023-08-06T06:58:14;4.13;;;1.30;;
1024;SDS011;501;48.214;11.350;2023-08-06T07:00:41;4.90;;;1.20;;
1024;SDS011;501;48.214;11.350;2023-08-06T07:03:07;3.40;;;1.33;;
1024;SDS011;501;48.214;11.350;2023-08-06T07:05:32;1.63;;;1.30;;
1024;SDS011;501;48.214;11.350;2023-08-06T07:07:58;1.10;;;1.00;;
1024;SDS011;501;48.214;11.350;2023-08-06T07:10:23;1.23;;;1.13;;
1024;SDS011;501;48.214;11.350;2023-08-06T07:12:50;1.27;;;0.80;;
1024;SDS011;501;48.214;11.350;2023-08-06T07:15:15;2.47;;;1.00;;
1024;SDS011;501;48.214;11.350;2023-08-06T07:17:42;1.07;;;0.90;;
1024;SDS011;501;48.214;11.350;2023-08-06T07:20:08;3.60;;;1.20;;
1024;SDS011;501;48.214;11.350;2023-08-06T07:22:34;1.13;;;0.93;;
1024;SDS011;501;48.214;11.350;2023-08-06T07:25:00;1.47;;;1.37;;
1024;SDS011;501;48.214;11.350;2023-08-06T07:27:26;0.93;;;0.93;;
1024;SDS011;501;48.214;11.350;2023-08-06T07:29:52;1.23;;;1.13;;
1024;SDS011;501;48.214;11.350;2023-08-06T07:32:17;2.03;;;1.00;;
1024;SDS011;501;48.214;11.350;2023-08-06T07:34:43;1.10;;;1.00;;
1024;SDS011;501;48.214;11.350;2023-08-06T07:37:08;3.90;;;1.43;;
1024;SDS011;501;48.214;11.350;2023-08-06T07:39:34;1.70;;;1.20;;
1024;SDS011;501;48.214;11.350;2023-08-06T07:42:00;1.10;;;1.00;;
1024;SDS011;501;48.214;11.350;2023-08-06T07:44:27;2.30;;;1.20;;
1024;SDS011;501;48.214;11.350;2023-08-06T07:46:53;1.03;;;0.93;;
1024;SDS011;501;48.214;11.350;2023-08-06T07:49:18;1.73;;;0.90;;
1024;SDS011;501;48.214;11.350;2023-08-06T07:51:44;1.50;;;1.40;;
1024;SDS011;501;48.214;11.350;2023-08-06T07:54:09;0.80;;;0.80;;
1024;SDS011;501;48.214;11.350;2023-08-06T07:56:35;1.37;;;1.03;;
1024;SDS011;501;48.214;11.350;2023-08-06T07:59:01;2.57;;;0.70;;
1024;SDS011;501;48.214;11.350;2023-08-06T08:01:27;0.83;;;0.80;;
1024;SDS011;501;48.214;11.350;2023-08-06T08:03:53;1.30;;;1.20;;
1024;SDS011;501;48.214;11.350;2023-08-06T08:06:18;1.00;;;0.80;;
1024;SDS011;501;48.214;11.350;2023-08-06T08:08:44;1.37;;;0.70;;
1024;SDS011;501;48.214;11.350;2023-08-06T08:11:09;0.90;;;0.90;;
1024;SDS011;501;48.214;11.350;2023-08-06T08:13:35;1.83;;;1.10;;
1024;SDS011;501;48.214;11.350;2023-08-06T08:16:01;1.13;;;0.90;;
1024;SDS011;501;48.214;11.350;2023-08-06T08:18:27;1.70;;;0.80;;
1024;SDS011;501;48.214;11.350;2023-08-06T08:20:53;1.10;;;0.90;;
1024;SDS011;501;48.214;11.350;2023-08-06T08:23:19;2.20;;;0.73;;
1024;SDS011;501;48.214;11.350;2023-08-06T08:25:45;1.53;;;0.80;;
1024;SDS011;501;48.214;11.350;2023-08-06T08:28:10;1.00;;;0.77;;
1024;SDS011;501;48.214;11.350;2023-08-06T08:30:36;1.57;;;0.77;;
1024;SDS011;501;48.214;11.350;2023-08-06T08:33:02;0.97;;;0.80;;
1024;SDS011;501;48.214;11.350;2023-08-06T08:35:27;0.50;;;0.50;;
1024;SDS011;501;48.214;11.350;2023-08-06T08:37:53;1.47;;;0.60;;
1024;SDS011;501;48.214;11.350;2023-08-06T08:40:19;0.50;;;0.47;;
1024;SDS011;501;48.214;11.350;2023-08-06T08:42:52;1.43;;;0.63;;
1024;SDS011;501;48.214;11.350;2023-08-06T08:45:19;1.20;;;0.47;;
1024;SDS011;501;48.214;11.350;2023-08-06T08:47:47;0.70;;;0.70;;
1024;SDS011;501;48.214;11.350;2023-08-06T08:50:13;1.03;;;0.40;;
1024;SDS011;501;48.214;11.350;2023-08-06T08:52:39;1.60;;;0.60;;
1024;SDS011;501;48.214;11.350;2023-08-06T08:55:07;1.27;;;0.90;;
1024;SDS011;501;48.214;11.350;2023-08-06T08:57:33;0.80;;;0.40;;
1024;SDS011;501;48.214;11.350;2023-08-06T08:59:58;0.87;;;0.40;;
1024;SDS011;501;48.214;11.350;2023-08-06T09:02:25;0.90;;;0.40;;
1024;SDS011;501;48.214;11.350;2023-08-06T09:04:55;1.30;;;0.53;;
1024;SDS011;501;48.214;11.350;2023-08-06T09:07:24;0.63;;;0.63;;
1024;SDS011;501;48.214;11.350;2023-08-06T09:09:51;0.60;;;0.40;;
1024;SDS011;501;48.214;11.350;2023-08-06T09:12:17;0.50;;;0.40;;
1024;SDS011;501;48.214;11.350;2023-08-06T09:14:43;1.90;;;0.37;;
1024;SDS011;501;48.214;11.350;2023-08-06T09:17:09;0.40;;;0.30;;
1024;SDS011;501;48.214;11.350;2023-08-06T09:19:39;0.80;;;0.40;;
1024;SDS011;501;48.214;11.350;2023-08-06T09:22:11;0.70;;;0.40;;
1024;SDS011;501;48.214;11.350;2023-08-06T09:24:39;0.40;;;0.40;;
1024;SDS011;501;48.214;11.350;2023-08-06T09:27:10;1.27;;;0.30;;
1024;SDS011;501;48.214;11.350;2023-08-06T09:29:40;0.67;;;0.40;;
1024;SDS011;501;48.214;11.350;2023-08-06T09:32:10;0.30;;;0.20;;
1024;SDS011;501;48.214;11.350;2023-08-06T09:34:39;0.50;;;0.50;;
1024;SDS011;501;48.214;11.350;2023-08-06T09:37:08;1.50;;;0.47;;
1024;SDS011;501;48.214;11.350;2023-08-06T09:39:35;0.60;;;0.33;;
1024;SDS011;501;48.214;11.350;2023-08-06T09:42:03;0.50;;;0.40;;
1024;SDS011;501;48.214;11.350;2023-08-06T09:44:30;0.50;;;0.30;;
1024;SDS011;501;48.214;11.350;2023-08-06T09:47:03;0.57;;;0.30;;
1024;SDS011;501;48.214;11.350;2023-08-06T09:51:58;2.70;;;0.40;;
1024;SDS011;501;48.214;11.350;2023-08-06T09:54:25;0.70;;;0.30;;
1024;SDS011;501;48.214;11.350;2023-08-06T09:56:52;0.30;;;0.30;;
1024;SDS011;501;48.214;11.350;2023-08-06T09:59:19;0.87;;;0.40;;
1024;SDS011;501;48.214;11.350;2023-08-06T10:01:45;1.17;;;0.30;;
1024;SDS011;501;48.214;11.350;2023-08-06T10:04:11;1.70;;;0.53;;
1024;SDS011;501;48.214;11.350;2023-08-06T10:06:41;0.30;;;0.20;;
1024;SDS011;501;48.214;11.350;2023-08-06T10:09:08;0.53;;;0.40;;
1024;SDS011;501;48.214;11.350;2023-08-06T10:11:34;0.40;;;0.30;;
1024;SDS011;501;48.214;11.350;2023-08-06T10:14:10;0.60;;;0.33;;
1024;SDS011;501;48.214;11.350;2023-08-06T10:16:39;0.87;;;0.30;;
1024;SDS011;501;48.214;11.350;2023-08-06T10:19:07;1.60;;;0.30;;
1024;SDS011;501;48.214;11.350;2023-08-06T10:21:35;0.50;;;0.50;;
1024;SDS011;501;48.214;11.350;2023-08-06T10:24:02;1.17;;;0.20;;
1024;SDS011;501;48.214;11.350;2023-08-06T10:26:34;2.30;;;0.40;;
1024;SDS011;501;48.214;11.350;2023-08-06T10:29:00;0.90;;;0.50;;
1024;SDS011;501;48.214;11.350;2023-08-06T10:34:22;0.80;;;0.30;;
1024;SDS011;501;48.214;11.350;2023-08-06T10:36:48;1.80;;;0.27;;
1024;SDS011;501;48.214;11.350;2023-08-06T10:39:14;1.17;;;0.23;;
1024;SDS011;501;48.214;11.350;2023-08-06T10:41:42;2.87;;;0.40;;
1024;SDS011;501;48.214;11.350;2023-08-06T10:44:09;0.70;;;0.20;;
1024;SDS011;501;48.214;11.350;2023-08-06T10:46:35;1.13;;;0.30;;
1024;SDS011;501;48.214;11.350;2023-08-06T10:49:02;0.57;;;0.30;;
1024;SDS011;501;48.214;11.350;2023-08-06T10:51:29;0.43;;;0.20;;
1024;SDS011;501;48.214;11.350;2023-08-06T10:53:55;0.40;;;0.30;;
1024;SDS011;501;48.214;11.350;2023-08-06T10:56:23;0.50;;;0.20;;
1024;SDS011;501;48.214;11.350;2023-08-06T10:58:53;0.30;;;0.20;;
1024;SDS011;501;48.214;11.350;2023-08-06T11:01:20;2.13;;;0.30;;
1024;SDS011;501;48.214;11.350;2023-08-06T11:03:47;2.20;;;0.30;;
1024;SDS011;501;48.214;11.350;2023-08-06T11:06:19;0.50;;;0.30;;
1024;SDS011;501;48.214;11.350;2023-08-06T11:08:50;1.37;;;0.30;;
1024;SDS011;501;48.214;11.350;2023-08-06T11:11:19;0.57;;;0.27;;
1024;SDS011;501;48.214;11.350;2023-08-06T11:13:46;0.40;;;0.13;;
1024;SDS011;501;48.214;11.350;2023-08-06T11:16:13;0.63;;;0.63;;
1024;SDS011;501;48.214;11.350;2023-08-06T11:18:43;0.40;;;0.30;;
1024;SDS011;501;48.214;11.350;2023-08-06T11:21:09;0.40;;;0.20;;
1024;SDS011;501;48.214;11.350;2023-08-06T11:23:37;0.57;;;0.40;;
1024;SDS011;501;48.214;11.350;2023-08-06T11:26:03;1.07;;;0.40;;
1024;SDS011;501;48.214;11.350;2023-08-06T11:28:29;1.10;;;0.20;;
1024;SDS011;501;48.214;11.350;2023-08-06T11:30:54;2.30;;;0.20;;
1024;SDS011;501;48.214;11.350;2023-08-06T11:35:48;0.50;;;0.30;;
1024;SDS011;501;48.214;11.350;2023-08-06T11:38:14;1.17;;;0.20;;
1024;SDS011;501;48.214;11.350;2023-08-06T11:40:41;0.30;;;0.20;;
1024;SDS011;501;48.214;11.350;2023-08-06T11:43:12;2.47;;;0.20;;
1024;SDS011;501;48.214;11.350;2023-08-06T11:45:39;0.40;;;0.23;;
1024;SDS011;501;48.214;11.350;2023-08-06T11:48:05;0.40;;;0.30;;
1024;SDS011;501;48.214;11.350;2023-08-06T11:50:31;0.60;;;0.23;;
1024;SDS011;501;48.214;11.350;2023-08-06T11:53:02;0.30;;;0.20;;
1024;SDS011;501;48.214;11.350;2023-08-06T11:55:28;0.30;;;0.20;;
1024;SDS011;501;48.214;11.350;2023-08-06T11:57:54;0.40;;;0.20;;
1024;SDS011;501;48.214;11.350;2023-08-06T12:00:20;0.30;;;0.20;;
1024;SDS011;501;48.214;11.350;2023-08-06T12:02:48;0.30;;;0.20;;
1024;SDS011;501;48.214;11.350;2023-08-06T12:05:17;0.40;;;0.20;;
1024;SDS011;501;48.214;11.350;2023-08-06T12:07:51;0.57;;;0.30;;
1024;SDS011;501;48.214;11.350;2023-08-06T12:10:18;0.40;;;0.20;;
1024;SDS011;501;48.214;11.350;2023-08-06T12:12:44;0.50;;;0.30;;
1024;SDS011;501;48.214;11.350;2023-08-06T12:15:10;0.40;;;0.20;;
1024;SDS011;501;48.214;11.350;2023-08-06T12:17:36;0.83;;;0.30;;
1024;SDS011;501;48.214;11.350;2023-08-06T12:20:06;1.00;;;0.20;;
1024;SDS011;501;48.214;11.350;2023-08-06T12:22:32;0.93;;;0.40;;
1024;SDS011;501;48.214;11.350;2023-08-06T12:25:03;0.30;;;0.20;;
1024;SDS011;501;48.214;11.350;2023-08-06T12:27:37;3.30;;;0.30;;
1024;SDS011;501;48.214;11.350;2023-08-06T12:30:04;0.30;;;0.20;;
1024;SDS011;501;48.214;11.350;2023-08-06T12:32:30;0.30;;;0.20;;
1024;SDS011;501;48.214;11.350;2023-08-06T12:34:56;0.60;;;0.30;;
1024;SDS011;501;48.214;11.350;2023-08-06T12:37:23;0.37;;;0.20;;
1024;SDS011;501;48.214;11.350;2023-08-06T12:39:50;0.40;;;0.20;;
1024;SDS011;501;48.214;11.350;2023-08-06T12:42:15;0.70;;;0.20;;
1024;SDS011;501;48.214;11.350;2023-08-06T12:44:41;0.30;;;0.20;;
1024;SDS011;501;48.214;11.350;2023-08-06T12:47:07;0.50;;;0.37;;
1024;SDS011;501;48.214;11.350;2023-08-06T12:49:33;0.30;;;0.20;;
1024;SDS011;501;48.214;11.350;2023-08-06T12:51:58;1.33;;;0.40;;
1024;SDS011;501;48.214;11.350;2023-08-06T12:54:27;0.40;;;0.20;;
1024;SDS011;501;48.214;11.350;2023-08-06T12:56:53;1.17;;;0.20;;
1024;SDS011;501;48.214;11.350;2023-08-06T12:59:19;0.30;;;0.20;;
1024;SDS011;501;48.214;11.350;2023-08-06T13:01:45;0.30;;;0.20;;
1024;SDS011;501;48.214;11.350;2023-08-06T13:04:11;0.40;;;0.20;;
1024;SDS011;501;48.214;11.350;2023-08-06T13:06:37;0.30;;;0.20;;
1024;SDS011;501;48.214;11.350;2023-08-06T13:09:04;6.10;;;0.40;;
1024;SDS011;501;48.214;11.350;2023-08-06T13:11:31;0.47;;;0.30;;
1024;SDS011;501;48.214;11.350;2023-08-06T13:14:17;0.30;;;0.20;;
1024;SDS011;501;48.214;11.350;2023-08-06T13:16:42;0.40;;;0.27;;
1024;SDS011;501;48.214;11.350;2023-08-06T13:19:09;0.30;;;0.20;;
1024;SDS011;501;48.214;11.350;2023-08-06T13:21:57;1.40;;;0.40;;
1024;SDS011;501;48.214;11.350;2023-08-06T13:24:26;0.83;;;0.20;;
1024;SDS011;501;48.214;11.350;2023-08-06T13:26:52;0.80;;;0.30;;
1024;SDS011;501;48.214;11.350;2023-08-06T13:29:18;0.60;;;0.37;;
1024;SDS011;501;48.214;11.350;2023-08-06T13:31:43;0.30;;;0.20;;
1024;SDS011;501;48.214;11.350;2023-08-06T13:34:09;0.50;;;0.30;;
1024;SDS011;501;48.214;11.350;2023-08-06T13:36:34;2.83;;;0.20;;
1024;SDS011;501;48.214;11.350;2023-08-06T13:39:00;0.40;;;0.30;;
1024;SDS011;501;48.214;11.350;2023-08-06T13:41:26;0.30;;;0.20;;
1024;SDS011;501;48.214;11.350;2023-08-06T13:43:51;0.40;;;0.30;;
1024;SDS011;501;48.214;11.350;2023-08-06T13:46:18;0.43;;;0.30;;
1024;SDS011;501;48.214;11.350;2023-08-06T13:48:45;0.30;;;0.30;;
1024;SDS011;501;48.214;11.350;2023-08-06T13:51:12;0.40;;;0.40;;
1024;SDS011;501;48.214;11.350;2023-08-06T13:53:39;0.50;;;0.20;;
1024;SDS011;501;48.214;11.350;2023-08-06T13:56:05;1.13;;;0.30;;
1024;SDS011;501;48.214;11.350;2023-08-06T13:58:32;0.30;;;0.20;;
1024;SDS011;501;48.214;11.350;2023-08-06T14:00:58;0.40;;;0.20;;
1024;SDS011;501;48.214;11.350;2023-08-06T14:03:24;0.87;;;0.33;;
1024;SDS011;501;48.214;11.350;2023-08-06T14:05:49;0.40;;;0.23;;
1024;SDS011;501;48.214;11.350;2023-08-06T14:08:15;0.30;;;0.20;;
1024;SDS011;501;48.214;11.350;2023-08-06T14:10:43;0.30;;;0.20;;
1024;SDS011;501;48.214;11.350;2023-08-06T14:13:09;0.50;;;0.30;;
1024;SDS011;501;48.214;11.350;2023-08-06T14:15:35;0.60;;;0.33;;
1024;SDS011;501;48.214;11.350;2023-08-06T14:18:01;0.30;;;0.27;;
1024;SDS011;501;48.214;11.350;2023-08-06T14:20:27;0.77;;;0.30;;
1024;SDS011;501;48.214;11.350;2023-08-06T14:22:53;1.13;;;0.50;;
1024;SDS011;501;48.214;11.350;2023-08-06T14:25:19;0.50;;;0.33;;
1024;SDS011;501;48.214;11.350;2023-08-06T14:27:45;0.53;;;0.30;;
1024;SDS011;501;48.214;11.350;2023-08-06T14:30:11;0.40;;;0.20;;
1024;SDS011;501;48.214;11.350;2023-08-06T14:32:36;0.40;;;0.30;;
1024;SDS011;501;48.214;11.350;2023-08-06T14:35:02;0.93;;;0.47;;
1024;SDS011;501;48.214;11.350;2023-08-06T14:37:28;2.50;;;0.40;;
1024;SDS011;501;48.214;11.350;2023-08-06T14:39:54;0.40;;;0.20;;
1024;SDS011;501;48.214;11.350;2023-08-06T14:42:19;0.50;;;0.20;;
1024;SDS011;501;48.214;11.350;2023-08-06T14:44:45;0.30;;;0.30;;
1024;SDS011;501;48.214;11.350;2023-08-06T14:47:11;0.50;;;0.40;;
1024;SDS011;501;48.214;11.350;2023-08-06T14:49:37;0.40;;;0.40;;
1024;SDS011;501;48.214;11.350;2023-08-06T14:52:03;2.57;;;0.30;;
1024;SDS011;501;48.214;11.350;2023-08-06T14:54:29;0.50;;;0.40;;
1024;SDS011;501;48.214;11.350;2023-08-06T14:56:55;1.27;;;0.33;;
1024;SDS011;501;48.214;11.350;2023-08-06T14:59:21;0.43;;;0.40;;
1024;SDS011;501;48.214;11.350;2023-08-06T15:01:47;0.30;;;0.30;;
1024;SDS011;501;48.214;11.350;2023-08-06T15:04:13;0.60;;;0.30;;
1024;SDS011;501;48.214;11.350;2023-08-06T15:06:38;0.40;;;0.27;;
1024;SDS011;501;48.214;11.350;2023-08-06T15:09:04;0.50;;;0.30;;
1024;SDS011;501;48.214;11.350;2023-08-06T15:11:29;1.40;;;0.50;;
1024;SDS011;501;48.214;11.350;2023-08-06T15:13:55;0.77;;;0.50;;
1024;SDS011;501;48.214;11.350;2023-08-06T15:16:21;0.60;;;0.40;;
1024;SDS011;501;48.214;11.350;2023-08-06T15:18:46;0.40;;;0.30;;
1024;SDS011;501;48.214;11.350;2023-08-06T15:21:13;0.50;;;0.50;;
1024;SDS011;501;48.214;11.350;2023-08-06T15:23:39;0.63;;;0.30;;